sensor_id;sensor_type;location;lat;lon;timestamp;P1;durP1;ratioP1;P2;durP2;ratioP2
22359;SDS011;11347;52.030;4.690;2022-09-20T00:00:36;4.73;;;0.90;;
22359;SDS011;11347;52.030;4.690;2022-09-20T00:03:03;3.10;;;0.70;;
22359;SDS011;11347;52.030;4.690;2022-09-20T00:05:28;2.83;;;0.63;;
22359;SDS011;11347;52.030;4.690;2022-09-20T00:07:57;2.90;;;0.60;;
22359;SDS011;11347;52.030;4.690;2022-09-20T00:10:22;2.27;;;0.57;;
22359;SDS011;11347;52.030;4.690;2022-09-20T00:12:48;3.00;;;0.60;;
22359;SDS011;11347;52.030;4.690;2022-09-20T00:15:14;2.43;;;0.40;;
22359;SDS011;11347;52.030;4.690;2022-09-20T00:17:39;1.77;;;0.60;;
22359;SDS011;11347;52.030;4.690;2022-09-20T00:20:05;3.40;;;0.70;;
22359;SDS011;11347;52.030;4.690;2022-09-20T00:22:31;2.90;;;0.87;;
22359;SDS011;11347;52.030;4.690;2022-09-20T00:24:56;1.83;;;0.60;;
22359;SDS011;11347;52.030;4.690;2022-09-20T00:27:22;1.97;;;0.53;;
22359;SDS011;11347;52.030;4.690;2022-09-20T00:29:47;0.80;;;0.40;;
22359;SDS011;11347;52.030;4.690;2022-09-20T00:32:13;2.33;;;0.60;;
22359;SDS011;11347;52.030;4.690;2022-09-20T00:34:38;4.70;;;0.93;;
22359;SDS011;11347;52.030;4.690;2022-09-20T00:37:23;3.17;;;0.80;;
22359;SDS011;11347;52.030;4.690;2022-09-20T00:39:48;4.27;;;0.90;;
22359;SDS011;11347;52.030;4.690;2022-09-20T00:42:14;2.70;;;0.60;;
22359;SDS011;11347;52.030;4.690;2022-09-20T00:44:44;3.20;;;0.60;;
22359;SDS011;11347;52.030;4.690;2022-09-20T00:47:23;2.40;;;0.57;;
22359;SDS011;11347;52.030;4.690;2022-09-20T00:52:53;3.00;;;0.63;;
22359;SDS011;11347;52.030;4.690;2022-09-20T00:55:42;3.93;;;0.70;;
22359;SDS011;11347;52.030;4.690;2022-09-20T00:58:15;3.63;;;0.60;;
22359;SDS011;11347;52.030;4.690;2022-09-20T01:00:44;2.57;;;0.60;;
22359;SDS011;11347;52.030;4.690;2022-09-20T01:03:10;2.47;;;0.57;;
22359;SDS011;11347;52.030;4.690;2022-09-20T01:05:39;3.30;;;0.77;;
22359;SDS011;11347;52.030;4.690;2022-09-20T01:08:08;3.13;;;0.70;;
22359;SDS011;11347;52.030;4.690;2022-09-20T01:10:34;3.73;;;0.80;;
22359;SDS011;11347;52.030;4.690;2022-09-20T01:13:00;4.73;;;0.77;;
22359;SDS011;11347;52.030;4.690;2022-09-20T01:15:27;3.13;;;0.80;;
22359;SDS011;11347;52.030;4.690;2022-09-20T01:17:54;2.97;;;0.67;;
22359;SDS011;11347;52.030;4.690;2022-09-20T01:26:00;2.97;;;0.67;;
22359;SDS011;11347;52.030;4.690;2022-09-20T01:28:29;3.23;;;0.67;;
22359;SDS011;11347;52.030;4.690;2022-09-20T01:33:37;3.77;;;0.67;;
22359;SDS011;11347;52.030;4.690;2022-09-20T01:36:17;1.23;;;0.40;;
22359;SDS011;11347;52.030;4.690;2022-09-20T01:41:24;2.60;;;0.70;;
22359;SDS011;11347;52.030;4.690;2022-09-20T01:44:04;1.90;;;0.60;;
22359;SDS011;11347;52.030;4.690;2022-09-20T01:46:34;4.27;;;1.00;;
22359;SDS011;11347;52.030;4.690;2022-09-20T01:49:22;2.53;;;0.70;;
22359;SDS011;11347;52.030;4.690;2022-09-20T02:00:29;2.23;;;0.70;;
22359;SDS011;11347;52.030;4.690;2022-09-20T02:21:10;3.53;;;0.90;;
22359;SDS011;11347;52.030;4.690;2022-09-20T02:34:49;2.87;;;0.50;;
22359;SDS011;11347;52.030;4.690;2022-09-20T02:43:32;1.53;;;0.70;;
22359;SDS011;11347;52.030;4.690;2022-09-20T02:46:20;1.93;;;0.50;;
22359;SDS011;11347;52.030;4.690;2022-09-20T02:48:59;1.77;;;0.70;;
22359;SDS011;11347;52.030;4.690;2022-09-20T02:51:51;2.00;;;0.57;;
22359;SDS011;11347;52.030;4.690;2022-09-20T02:54:38;2.13;;;0.50;;
22359;SDS011;11347;52.030;4.690;2022-09-20T02:57:27;2.10;;;0.53;;
22359;SDS011;11347;52.030;4.690;2022-09-20T03:00:18;1.50;;;0.60;;
22359;SDS011;11347;52.030;4.690;2022-09-20T03:11:03;2.97;;;0.70;;
22359;SDS011;11347;52.030;4.690;2022-09-20T03:16:33;1.70;;;0.70;;
22359;SDS011;11347;52.030;4.690;2022-09-20T03:19:21;3.07;;;0.70;;
22359;SDS011;11347;52.030;4.690;2022-09-20T03:22:04;1.50;;;0.40;;
22359;SDS011;11347;52.030;4.690;2022-09-20T03:46:46;3.17;;;0.47;;
22359;SDS011;11347;52.030;4.690;2022-09-20T03:51:57;0.97;;;0.47;;
22359;SDS011;11347;52.030;4.690;2022-09-20T03:54:33;1.90;;;0.50;;
22359;SDS011;11347;52.030;4.690;2022-09-20T03:57:17;3.30;;;0.60;;
22359;SDS011;11347;52.030;4.690;2022-09-20T04:02:48;2.87;;;0.50;;
22359;SDS011;11347;52.030;4.690;2022-09-20T04:11:33;1.43;;;0.50;;
22359;SDS011;11347;52.030;4.690;2022-09-20T04:16:54;2.20;;;0.70;;
22359;SDS011;11347;52.030;4.690;2022-09-20T04:19:32;3.17;;;0.70;;
22359;SDS011;11347;52.030;4.690;2022-09-20T04:22:08;1.40;;;0.50;;
22359;SDS011;11347;52.030;4.690;2022-09-20T04:24:47;3.10;;;0.70;;
22359;SDS011;11347;52.030;4.690;2022-09-20T04:27:19;2.03;;;0.70;;
22359;SDS011;11347;52.030;4.690;2022-09-20T04:30:32;1.87;;;0.50;;
22359;SDS011;11347;52.030;4.690;2022-09-20T04:32:47;4.20;;;0.60;;
22359;SDS011;11347;52.030;4.690;2022-09-20T04:38:20;1.80;;;0.60;;
22359;SDS011;11347;52.030;4.690;2022-09-20T04:58:17;3.37;;;0.60;;
22359;SDS011;11347;52.030;4.690;2022-09-20T05:02:05;1.90;;;0.57;;
22359;SDS011;11347;52.030;4.690;2022-09-20T05:04:02;1.30;;;0.50;;
22359;SDS011;11347;52.030;4.690;2022-09-20T05:15:40;1.73;;;0.60;;
22359;SDS011;11347;52.030;4.690;2022-09-20T05:18:26;2.23;;;0.67;;
22359;SDS011;11347;52.030;4.690;2022-09-20T05:21:22;2.70;;;0.80;;
22359;SDS011;11347;52.030;4.690;2022-09-20T05:27:49;2.30;;;0.70;;
22359;SDS011;11347;52.030;4.690;2022-09-20T05:43:32;4.07;;;1.07;;
22359;SDS011;11347;52.030;4.690;2022-09-20T05:46:31;3.07;;;0.70;;
22359;SDS011;11347;52.030;4.690;2022-09-20T05:54:46;6.53;;;0.80;;
22359;SDS011;11347;52.030;4.690;2022-09-20T06:08:33;2.73;;;0.80;;
22359;SDS011;11347;52.030;4.690;2022-09-20T06:11:41;2.33;;;0.73;;
22359;SDS011;11347;52.030;4.690;2022-09-20T06:22:40;3.43;;;0.83;;
22359;SDS011;11347;52.030;4.690;2022-09-20T06:27:36;1.93;;;0.63;;
22359;SDS011;11347;52.030;4.690;2022-09-20T06:30:13;3.67;;;0.70;;
22359;SDS011;11347;52.030;4.690;2022-09-20T06:32:53;2.20;;;0.90;;
22359;SDS011;11347;52.030;4.690;2022-09-20T06:35:19;2.67;;;0.80;;
22359;SDS011;11347;52.030;4.690;2022-09-20T06:37:57;1.97;;;0.70;;
22359;SDS011;11347;52.030;4.690;2022-09-20T06:40:56;4.00;;;0.80;;
22359;SDS011;11347;52.030;4.690;2022-09-20T06:43:40;2.80;;;0.60;;
22359;SDS011;11347;52.030;4.690;2022-09-20T06:46:07;2.50;;;0.83;;
22359;SDS011;11347;52.030;4.690;2022-09-20T06:48:32;4.70;;;0.87;;
22359;SDS011;11347;52.030;4.690;2022-09-20T06:50:58;2.30;;;0.60;;
22359;SDS011;11347;52.030;4.690;2022-09-20T06:53:27;3.03;;;0.93;;
22359;SDS011;11347;52.030;4.690;2022-09-20T06:55:54;2.83;;;0.70;;
22359;SDS011;11347;52.030;4.690;2022-09-20T06:58:21;2.07;;;0.70;;
22359;SDS011;11347;52.030;4.690;2022-09-20T07:00:47;1.80;;;0.40;;
22359;SDS011;11347;52.030;4.690;2022-09-20T07:03:12;4.53;;;0.90;;
22359;SDS011;11347;52.030;4.690;2022-09-20T07:05:38;1.80;;;0.70;;
22359;SDS011;11347;52.030;4.690;2022-09-20T07:08:04;2.43;;;0.80;;
22359;SDS011;11347;52.030;4.690;2022-09-20T07:10:30;3.57;;;0.90;;
22359;SDS011;11347;52.030;4.690;2022-09-20T07:12:56;4.60;;;0.90;;
22359;SDS011;11347;52.030;4.690;2022-09-20T07:15:23;5.47;;;0.80;;
22359;SDS011;11347;52.030;4.690;2022-09-20T07:17:49;3.73;;;0.80;;
22359;SDS011;11347;52.030;4.690;2022-09-20T07:20:15;3.23;;;0.80;;
22359;SDS011;11347;52.030;4.690;2022-09-20T07:22:41;2.17;;;0.70;;
22359;SDS011;11347;52.030;4.690;2022-09-20T07:25:06;3.50;;;0.67;;
22359;SDS011;11347;52.030;4.690;2022-09-20T07:27:32;2.43;;;0.87;;
22359;SDS011;11347;52.030;4.690;2022-09-20T07:29:58;4.70;;;1.03;;
22359;SDS011;11347;52.030;4.690;2022-09-20T07:32:23;4.57;;;0.83;;
22359;SDS011;11347;52.030;4.690;2022-09-20T07:34:50;3.47;;;0.90;;
22359;SDS011;11347;52.030;4.690;2022-09-20T07:37:16;3.33;;;0.70;;
22359;SDS011;11347;52.030;4.690;2022-09-20T07:39:42;1.93;;;0.73;;
22359;SDS011;11347;52.030;4.690;2022-09-20T07:42:09;2.63;;;0.70;;
22359;SDS011;11347;52.030;4.690;2022-09-20T07:44:35;3.33;;;0.80;;
22359;SDS011;11347;52.030;4.690;2022-09-20T07:47:01;4.07;;;1.10;;
22359;SDS011;11347;52.030;4.690;2022-09-20T07:49:27;5.73;;;1.37;;
22359;SDS011;11347;52.030;4.690;2022-09-20T07:51:56;3.47;;;0.90;;
22359;SDS011;11347;52.030;4.690;2022-09-20T07:54:22;3.17;;;0.70;;
22359;SDS011;11347;52.030;4.690;2022-09-20T07:56:48;2.73;;;0.77;;
22359;SDS011;11347;52.030;4.690;2022-09-20T07:59:14;3.27;;;0.80;;
22359;SDS011;11347;52.030;4.690;2022-09-20T08:01:40;4.43;;;0.97;;
22359;SDS011;11347;52.030;4.690;2022-09-20T08:04:07;2.97;;;0.60;;
22359;SDS011;11347;52.030;4.690;2022-09-20T08:06:36;5.57;;;0.93;;
22359;SDS011;11347;52.030;4.690;2022-09-20T08:09:07;2.37;;;0.80;;
22359;SDS011;11347;52.030;4.690;2022-09-20T08:11:33;2.77;;;0.80;;
22359;SDS011;11347;52.030;4.690;2022-09-20T08:14:00;3.87;;;0.90;;
22359;SDS011;11347;52.030;4.690;2022-09-20T08:16:27;6.63;;;1.00;;
22359;SDS011;11347;52.030;4.690;2022-09-20T08:18:54;4.63;;;0.60;;
22359;SDS011;11347;52.030;4.690;2022-09-20T08:21:24;1.67;;;0.67;;
22359;SDS011;11347;52.030;4.690;2022-09-20T08:23:52;2.50;;;0.77;;
22359;SDS011;11347;52.030;4.690;2022-09-20T08:26:19;1.73;;;0.60;;
22359;SDS011;11347;52.030;4.690;2022-09-20T08:28:46;3.37;;;0.63;;
22359;SDS011;11347;52.030;4.690;2022-09-20T08:31:17;1.53;;;0.60;;
22359;SDS011;11347;52.030;4.690;2022-09-20T08:33:45;2.63;;;0.60;;
22359;SDS011;11347;52.030;4.690;2022-09-20T08:36:14;4.53;;;0.73;;
22359;SDS011;11347;52.030;4.690;2022-09-20T08:38:41;2.97;;;0.70;;
22359;SDS011;11347;52.030;4.690;2022-09-20T08:41:11;2.50;;;0.50;;
22359;SDS011;11347;52.030;4.690;2022-09-20T08:43:48;4.00;;;0.67;;
22359;SDS011;11347;52.030;4.690;2022-09-20T08:46:16;4.20;;;0.70;;
22359;SDS011;11347;52.030;4.690;2022-09-20T08:48:44;5.80;;;0.80;;
22359;SDS011;11347;52.030;4.690;2022-09-20T08:51:11;3.67;;;0.70;;
22359;SDS011;11347;52.030;4.690;2022-09-20T08:53:47;4.47;;;0.80;;
22359;SDS011;11347;52.030;4.690;2022-09-20T08:56:16;4.50;;;0.70;;
22359;SDS011;11347;52.030;4.690;2022-09-20T08:58:43;4.47;;;0.77;;
22359;SDS011;11347;52.030;4.690;2022-09-20T09:01:12;2.60;;;0.57;;
22359;SDS011;11347;52.030;4.690;2022-09-20T09:03:45;3.47;;;0.77;;
22359;SDS011;11347;52.030;4.690;2022-09-20T09:06:14;4.07;;;0.73;;
22359;SDS011;11347;52.030;4.690;2022-09-20T09:08:44;4.17;;;0.80;;
22359;SDS011;11347;52.030;4.690;2022-09-20T09:11:15;3.30;;;0.80;;
22359;SDS011;11347;52.030;4.690;2022-09-20T09:13:50;2.10;;;0.70;;
22359;SDS011;11347;52.030;4.690;2022-09-20T09:16:17;2.90;;;0.70;;
22359;SDS011;11347;52.030;4.690;2022-09-20T09:18:46;2.53;;;0.63;;
22359;SDS011;11347;52.030;4.690;2022-09-20T09:21:25;3.87;;;0.70;;
22359;SDS011;11347;52.030;4.690;2022-09-20T09:26:28;2.10;;;0.53;;
22359;SDS011;11347;52.030;4.690;2022-09-20T09:29:16;3.20;;;0.97;;
22359;SDS011;11347;52.030;4.690;2022-09-20T09:31:42;2.17;;;0.60;;
22359;SDS011;11347;52.030;4.690;2022-09-20T09:34:42;2.50;;;0.70;;
22359;SDS011;11347;52.030;4.690;2022-09-20T09:37:03;2.80;;;0.63;;
22359;SDS011;11347;52.030;4.690;2022-09-20T09:39:33;3.33;;;0.80;;
22359;SDS011;11347;52.030;4.690;2022-09-20T09:42:20;2.10;;;0.77;;
22359;SDS011;11347;52.030;4.690;2022-09-20T09:44:52;5.60;;;0.70;;
22359;SDS011;11347;52.030;4.690;2022-09-20T09:47:35;2.53;;;0.60;;
22359;SDS011;11347;52.030;4.690;2022-09-20T09:50:01;3.53;;;0.63;;
22359;SDS011;11347;52.030;4.690;2022-09-20T09:52:27;4.40;;;0.80;;
22359;SDS011;11347;52.030;4.690;2022-09-20T09:54:57;4.07;;;0.90;;
22359;SDS011;11347;52.030;4.690;2022-09-20T10:00:25;4.10;;;0.80;;
22359;SDS011;11347;52.030;4.690;2022-09-20T10:08:16;4.23;;;0.80;;
22359;SDS011;11347;52.030;4.690;2022-09-20T10:11:06;2.10;;;0.80;;
22359;SDS011;11347;52.030;4.690;2022-09-20T10:22:20;2.50;;;0.90;;
22359;SDS011;11347;52.030;4.690;2022-09-20T10:30:32;14.67;;;1.80;;
22359;SDS011;11347;52.030;4.690;2022-09-20T10:33:37;16.00;;;1.97;;
22359;SDS011;11347;52.030;4.690;2022-09-20T10:39:30;10.47;;;1.50;;
22359;SDS011;11347;52.030;4.690;2022-09-20T10:45:06;11.13;;;1.40;;
22359;SDS011;11347;52.030;4.690;2022-09-20T10:48:02;6.20;;;1.27;;
22359;SDS011;11347;52.030;4.690;2022-09-20T10:50:48;9.50;;;1.30;;
22359;SDS011;11347;52.030;4.690;2022-09-20T10:56:11;6.23;;;1.40;;
22359;SDS011;11347;52.030;4.690;2022-09-20T11:04:05;8.03;;;1.10;;
22359;SDS011;11347;52.030;4.690;2022-09-20T11:09:33;6.27;;;1.10;;
22359;SDS011;11347;52.030;4.690;2022-09-20T11:14:31;5.00;;;0.70;;
22359;SDS011;11347;52.030;4.690;2022-09-20T11:17:04;3.73;;;0.80;;
22359;SDS011;11347;52.030;4.690;2022-09-20T11:19:46;4.03;;;1.03;;
22359;SDS011;11347;52.030;4.690;2022-09-20T11:25:13;6.80;;;0.80;;
22359;SDS011;11347;52.030;4.690;2022-09-20T11:27:46;2.73;;;0.40;;
22359;SDS011;11347;52.030;4.690;2022-09-20T11:30:19;4.27;;;0.70;;
22359;SDS011;11347;52.030;4.690;2022-09-20T11:37:42;5.10;;;0.70;;
22359;SDS011;11347;52.030;4.690;2022-09-20T11:40:21;3.23;;;0.70;;
22359;SDS011;11347;52.030;4.690;2022-09-20T11:42:50;5.60;;;0.70;;
22359;SDS011;11347;52.030;4.690;2022-09-20T11:45:18;4.40;;;0.60;;
22359;SDS011;11347;52.030;4.690;2022-09-20T11:47:46;2.80;;;0.50;;
22359;SDS011;11347;52.030;4.690;2022-09-20T11:55:46;3.17;;;0.60;;
22359;SDS011;11347;52.030;4.690;2022-09-20T11:58:13;4.90;;;0.80;;
22359;SDS011;11347;52.030;4.690;2022-09-20T12:00:44;3.90;;;0.77;;
22359;SDS011;11347;52.030;4.690;2022-09-20T12:09:24;3.50;;;0.50;;
22359;SDS011;11347;52.030;4.690;2022-09-20T12:11:54;2.73;;;0.60;;
22359;SDS011;11347;52.030;4.690;2022-09-20T12:14:24;3.90;;;0.60;;
22359;SDS011;11347;52.030;4.690;2022-09-20T12:16:52;2.40;;;0.70;;
22359;SDS011;11347;52.030;4.690;2022-09-20T12:24:55;4.80;;;0.80;;
22359;SDS011;11347;52.030;4.690;2022-09-20T12:30:19;2.63;;;0.60;;
22359;SDS011;11347;52.030;4.690;2022-09-20T12:32:47;3.43;;;0.67;;
22359;SDS011;11347;52.030;4.690;2022-09-20T12:43:32;2.47;;;0.53;;
22359;SDS011;11347;52.030;4.690;2022-09-20T12:46:00;2.23;;;0.50;;
22359;SDS011;11347;52.030;4.690;2022-09-20T12:48:29;3.17;;;0.60;;
22359;SDS011;11347;52.030;4.690;2022-09-20T12:51:02;1.93;;;0.47;;
22359;SDS011;11347;52.030;4.690;2022-09-20T12:53:59;3.00;;;0.60;;
22359;SDS011;11347;52.030;4.690;2022-09-20T12:56:35;1.90;;;0.90;;
22359;SDS011;11347;52.030;4.690;2022-09-20T12:59:04;3.37;;;0.80;;
22359;SDS011;11347;52.030;4.690;2022-09-20T13:01:44;2.20;;;0.70;;
22359;SDS011;11347;52.030;4.690;2022-09-20T13:07:25;3.63;;;0.70;;
22359;SDS011;11347;52.030;4.690;2022-09-20T13:09:58;2.73;;;0.53;;
22359;SDS011;11347;52.030;4.690;2022-09-20T13:12:44;2.47;;;0.70;;
22359;SDS011;11347;52.030;4.690;2022-09-20T13:15:12;1.43;;;0.40;;
22359;SDS011;11347;52.030;4.690;2022-09-20T13:17:42;2.03;;;0.50;;
22359;SDS011;11347;52.030;4.690;2022-09-20T13:20:13;1.43;;;0.37;;
22359;SDS011;11347;52.030;4.690;2022-09-20T13:22:43;1.93;;;0.60;;
22359;SDS011;11347;52.030;4.690;2022-09-20T13:25:12;2.07;;;0.60;;
22359;SDS011;11347;52.030;4.690;2022-09-20T13:27:41;2.33;;;0.50;;
22359;SDS011;11347;52.030;4.690;2022-09-20T13:30:24;0.80;;;0.40;;
22359;SDS011;11347;52.030;4.690;2022-09-20T13:32:53;3.03;;;0.70;;
22359;SDS011;11347;52.030;4.690;2022-09-20T13:37:56;2.03;;;0.50;;
22359;SDS011;11347;52.030;4.690;2022-09-20T13:45:59;6.20;;;0.63;;
22359;SDS011;11347;52.030;4.690;2022-09-20T13:48:41;4.93;;;0.70;;
22359;SDS011;11347;52.030;4.690;2022-09-20T13:51:16;6.50;;;0.70;;
22359;SDS011;11347;52.030;4.690;2022-09-20T13:53:43;5.03;;;0.77;;
22359;SDS011;11347;52.030;4.690;2022-09-20T13:56:15;10.87;;;0.90;;
22359;SDS011;11347;52.030;4.690;2022-09-20T13:58:44;22.17;;;1.63;;
22359;SDS011;11347;52.030;4.690;2022-09-20T14:04:06;18.43;;;1.30;;
22359;SDS011;11347;52.030;4.690;2022-09-20T14:06:37;12.67;;;1.30;;
22359;SDS011;11347;52.030;4.690;2022-09-20T14:09:04;11.10;;;1.20;;
22359;SDS011;11347;52.030;4.690;2022-09-20T14:11:32;6.67;;;1.00;;
22359;SDS011;11347;52.030;4.690;2022-09-20T14:13:58;3.20;;;0.70;;
22359;SDS011;11347;52.030;4.690;2022-09-20T14:16:37;6.77;;;1.13;;
22359;SDS011;11347;52.030;4.690;2022-09-20T14:19:04;6.43;;;1.23;;
22359;SDS011;11347;52.030;4.690;2022-09-20T14:21:34;6.00;;;1.00;;
22359;SDS011;11347;52.030;4.690;2022-09-20T14:24:05;6.77;;;0.80;;
22359;SDS011;11347;52.030;4.690;2022-09-20T14:26:36;4.20;;;0.87;;
22359;SDS011;11347;52.030;4.690;2022-09-20T14:37:24;6.33;;;0.70;;
22359;SDS011;11347;52.030;4.690;2022-09-20T14:39:54;4.07;;;0.70;;
22359;SDS011;11347;52.030;4.690;2022-09-20T14:42:33;4.80;;;0.83;;
22359;SDS011;11347;52.030;4.690;2022-09-20T14:45:06;3.50;;;0.73;;
22359;SDS011;11347;52.030;4.690;2022-09-20T14:47:57;5.17;;;0.70;;
22359;SDS011;11347;52.030;4.690;2022-09-20T14:51:07;3.40;;;0.50;;
22359;SDS011;11347;52.030;4.690;2022-09-20T14:53:34;5.00;;;0.97;;
22359;SDS011;11347;52.030;4.690;2022-09-20T14:58:30;1.57;;;0.53;;
22359;SDS011;11347;52.030;4.690;2022-09-20T15:01:01;3.73;;;0.57;;
22359;SDS011;11347;52.030;4.690;2022-09-20T15:03:38;3.17;;;0.60;;
22359;SDS011;11347;52.030;4.690;2022-09-20T15:06:05;2.93;;;0.50;;
22359;SDS011;11347;52.030;4.690;2022-09-20T15:08:35;2.80;;;0.60;;
22359;SDS011;11347;52.030;4.690;2022-09-20T15:11:01;3.63;;;0.60;;
22359;SDS011;11347;52.030;4.690;2022-09-20T15:13:26;3.80;;;0.50;;
22359;SDS011;11347;52.030;4.690;2022-09-20T15:15:52;2.83;;;0.50;;
22359;SDS011;11347;52.030;4.690;2022-09-20T15:18:19;1.53;;;0.40;;
22359;SDS011;11347;52.030;4.690;2022-09-20T15:20:52;1.23;;;0.50;;
22359;SDS011;11347;52.030;4.690;2022-09-20T15:23:19;1.83;;;0.50;;
22359;SDS011;11347;52.030;4.690;2022-09-20T15:25:48;1.37;;;0.40;;
22359;SDS011;11347;52.030;4.690;2022-09-20T15:28:15;0.70;;;0.40;;
22359;SDS011;11347;52.030;4.690;2022-09-20T15:30:41;1.80;;;0.50;;
22359;SDS011;11347;52.030;4.690;2022-09-20T15:33:11;2.27;;;0.50;;
22359;SDS011;11347;52.030;4.690;2022-09-20T15:35:38;1.97;;;0.50;;
22359;SDS011;11347;52.030;4.690;2022-09-20T15:38:05;2.90;;;0.40;;
22359;SDS011;11347;52.030;4.690;2022-09-20T15:40:33;2.07;;;0.60;;
22359;SDS011;11347;52.030;4.690;2022-09-20T15:42:59;2.47;;;0.63;;
22359;SDS011;11347;52.030;4.690;2022-09-20T15:45:25;1.83;;;0.43;;
22359;SDS011;11347;52.030;4.690;2022-09-20T15:47:52;3.00;;;0.70;;
22359;SDS011;11347;52.030;4.690;2022-09-20T15:50:22;0.83;;;0.33;;
22359;SDS011;11347;52.030;4.690;2022-09-20T15:52:48;1.87;;;0.43;;
22359;SDS011;11347;52.030;4.690;2022-09-20T15:55:17;1.67;;;0.50;;
22359;SDS011;11347;52.030;4.690;2022-09-20T15:57:44;1.93;;;0.40;;
22359;SDS011;11347;52.030;4.690;2022-09-20T16:00:11;2.80;;;0.60;;
22359;SDS011;11347;52.030;4.690;2022-09-20T16:02:37;3.67;;;0.60;;
22359;SDS011;11347;52.030;4.690;2022-09-20T16:05:02;4.57;;;0.60;;
22359;SDS011;11347;52.030;4.690;2022-09-20T16:07:28;0.97;;;0.40;;
22359;SDS011;11347;52.030;4.690;2022-09-20T16:09:54;1.50;;;0.30;;
22359;SDS011;11347;52.030;4.690;2022-09-20T16:12:21;1.60;;;0.50;;
22359;SDS011;11347;52.030;4.690;2022-09-20T16:14:48;2.50;;;0.40;;
22359;SDS011;11347;52.030;4.690;2022-09-20T16:17:14;3.00;;;0.53;;
22359;SDS011;11347;52.030;4.690;2022-09-20T16:19:40;4.23;;;0.70;;
22359;SDS011;11347;52.030;4.690;2022-09-20T16:22:06;2.40;;;0.57;;
22359;SDS011;11347;52.030;4.690;2022-09-20T16:24:33;1.20;;;0.40;;
22359;SDS011;11347;52.030;4.690;2022-09-20T16:27:00;2.80;;;0.50;;
22359;SDS011;11347;52.030;4.690;2022-09-20T16:29:28;2.70;;;0.70;;
22359;SDS011;11347;52.030;4.690;2022-09-20T16:31:55;1.30;;;0.40;;
22359;SDS011;11347;52.030;4.690;2022-09-20T16:37:16;2.10;;;0.50;;
22359;SDS011;11347;52.030;4.690;2022-09-20T16:39:41;2.40;;;0.60;;
22359;SDS011;11347;52.030;4.690;2022-09-20T16:42:09;1.57;;;0.60;;
22359;SDS011;11347;52.030;4.690;2022-09-20T16:44:37;1.27;;;0.40;;
22359;SDS011;11347;52.030;4.690;2022-09-20T16:47:05;1.50;;;0.53;;
22359;SDS011;11347;52.030;4.690;2022-09-20T16:49:33;2.43;;;0.40;;
22359;SDS011;11347;52.030;4.690;2022-09-20T16:52:00;2.27;;;0.60;;
22359;SDS011;11347;52.030;4.690;2022-09-20T16:54:27;1.80;;;0.60;;
22359;SDS011;11347;52.030;4.690;2022-09-20T16:56:54;0.73;;;0.43;;
22359;SDS011;11347;52.030;4.690;2022-09-20T16:59:19;1.50;;;0.50;;
22359;SDS011;11347;52.030;4.690;2022-09-20T17:01:45;1.47;;;0.50;;
22359;SDS011;11347;52.030;4.690;2022-09-20T17:04:12;2.87;;;0.50;;
22359;SDS011;11347;52.030;4.690;2022-09-20T17:06:40;1.20;;;0.63;;
22359;SDS011;11347;52.030;4.690;2022-09-20T17:09:07;1.83;;;0.90;;
22359;SDS011;11347;52.030;4.690;2022-09-20T17:11:35;2.37;;;0.67;;
22359;SDS011;11347;52.030;4.690;2022-09-20T17:14:02;3.20;;;0.73;;
22359;SDS011;11347;52.030;4.690;2022-09-20T17:16:30;1.80;;;0.67;;
22359;SDS011;11347;52.030;4.690;2022-09-20T17:18:59;4.90;;;0.80;;
22359;SDS011;11347;52.030;4.690;2022-09-20T17:21:26;1.10;;;0.57;;
22359;SDS011;11347;52.030;4.690;2022-09-20T17:23:54;1.87;;;0.77;;
22359;SDS011;11347;52.030;4.690;2022-09-20T17:26:24;3.73;;;1.10;;
22359;SDS011;11347;52.030;4.690;2022-09-20T17:28:52;2.30;;;0.70;;
22359;SDS011;11347;52.030;4.690;2022-09-20T17:31:21;2.23;;;0.70;;
22359;SDS011;11347;52.030;4.690;2022-09-20T17:33:49;2.37;;;0.80;;
22359;SDS011;11347;52.030;4.690;2022-09-20T17:36:16;1.50;;;0.70;;
22359;SDS011;11347;52.030;4.690;2022-09-20T17:38:44;2.80;;;1.00;;
22359;SDS011;11347;52.030;4.690;2022-09-20T17:41:12;2.90;;;0.80;;
22359;SDS011;11347;52.030;4.690;2022-09-20T17:43:38;3.60;;;0.90;;
22359;SDS011;11347;52.030;4.690;2022-09-20T17:46:10;2.17;;;0.90;;
22359;SDS011;11347;52.030;4.690;2022-09-20T17:48:36;2.20;;;0.80;;
22359;SDS011;11347;52.030;4.690;2022-09-20T17:51:02;1.00;;;0.70;;
22359;SDS011;11347;52.030;4.690;2022-09-20T17:53:29;3.77;;;0.80;;
22359;SDS011;11347;52.030;4.690;2022-09-20T17:55:56;1.43;;;0.60;;
22359;SDS011;11347;52.030;4.690;2022-09-20T17:58:23;2.23;;;0.80;;
22359;SDS011;11347;52.030;4.690;2022-09-20T18:00:49;4.10;;;0.70;;
22359;SDS011;11347;52.030;4.690;2022-09-20T18:03:15;2.97;;;0.70;;
22359;SDS011;11347;52.030;4.690;2022-09-20T18:05:42;1.43;;;0.80;;
22359;SDS011;11347;52.030;4.690;2022-09-20T18:08:08;4.87;;;0.90;;
22359;SDS011;11347;52.030;4.690;2022-09-20T18:10:33;2.13;;;0.70;;
22359;SDS011;11347;52.030;4.690;2022-09-20T18:12:59;2.80;;;0.80;;
22359;SDS011;11347;52.030;4.690;2022-09-20T18:15:25;1.97;;;0.57;;
22359;SDS011;11347;52.030;4.690;2022-09-20T18:17:51;2.10;;;0.80;;
22359;SDS011;11347;52.030;4.690;2022-09-20T18:20:17;2.87;;;0.70;;
22359;SDS011;11347;52.030;4.690;2022-09-20T18:22:46;2.00;;;0.60;;
22359;SDS011;11347;52.030;4.690;2022-09-20T18:25:11;3.07;;;1.00;;
22359;SDS011;11347;52.030;4.690;2022-09-20T18:27:37;3.17;;;0.70;;
22359;SDS011;11347;52.030;4.690;2022-09-20T18:30:03;2.33;;;0.70;;
22359;SDS011;11347;52.030;4.690;2022-09-20T18:32:29;1.87;;;0.70;;
22359;SDS011;11347;52.030;4.690;2022-09-20T18:34:55;3.50;;;0.60;;
22359;SDS011;11347;52.030;4.690;2022-09-20T18:37:21;1.57;;;0.60;;
22359;SDS011;11347;52.030;4.690;2022-09-20T18:39:46;2.60;;;0.70;;
22359;SDS011;11347;52.030;4.690;2022-09-20T18:42:13;2.13;;;0.70;;
22359;SDS011;11347;52.030;4.690;2022-09-20T18:44:39;1.40;;;0.60;;
22359;SDS011;11347;52.030;4.690;2022-09-20T18:47:07;2.33;;;0.60;;
22359;SDS011;11347;52.030;4.690;2022-09-20T18:49:33;1.60;;;0.67;;
22359;SDS011;11347;52.030;4.690;2022-09-20T18:51:59;2.57;;;0.73;;
22359;SDS011;11347;52.030;4.690;2022-09-20T18:54:25;4.70;;;0.67;;
22359;SDS011;11347;52.030;4.690;2022-09-20T18:56:57;2.70;;;0.90;;
22359;SDS011;11347;52.030;4.690;2022-09-20T18:59:24;4.67;;;0.83;;
22359;SDS011;11347;52.030;4.690;2022-09-20T19:18:19;2.80;;;0.63;;
22359;SDS011;11347;52.030;4.690;2022-09-20T19:20:40;2.93;;;0.63;;
22359;SDS011;11347;52.030;4.690;2022-09-20T19:28:30;4.03;;;0.90;;
22359;SDS011;11347;52.030;4.690;2022-09-20T19:30:56;2.90;;;0.90;;
22359;SDS011;11347;52.030;4.690;2022-09-20T19:33:22;2.83;;;0.80;;
22359;SDS011;11347;52.030;4.690;2022-09-20T19:35:48;3.63;;;0.90;;
22359;SDS011;11347;52.030;4.690;2022-09-20T19:38:22;1.40;;;0.67;;
22359;SDS011;11347;52.030;4.690;2022-09-20T19:43:54;2.60;;;0.80;;
22359;SDS011;11347;52.030;4.690;2022-09-20T19:46:37;4.70;;;0.80;;
22359;SDS011;11347;52.030;4.690;2022-09-20T19:51:53;2.43;;;1.00;;
22359;SDS011;11347;52.030;4.690;2022-09-20T19:54:21;3.40;;;0.70;;
22359;SDS011;11347;52.030;4.690;2022-09-20T19:56:54;5.60;;;0.70;;
22359;SDS011;11347;52.030;4.690;2022-09-20T19:59:22;1.97;;;0.87;;
22359;SDS011;11347;52.030;4.690;2022-09-20T20:01:49;1.83;;;0.70;;
22359;SDS011;11347;52.030;4.690;2022-09-20T20:04:15;2.30;;;0.70;;
22359;SDS011;11347;52.030;4.690;2022-09-20T20:09:40;2.83;;;0.80;;
22359;SDS011;11347;52.030;4.690;2022-09-20T20:17:36;3.00;;;0.70;;
22359;SDS011;11347;52.030;4.690;2022-09-20T20:20:25;4.63;;;0.97;;
22359;SDS011;11347;52.030;4.690;2022-09-20T20:25:45;2.00;;;0.70;;
22359;SDS011;11347;52.030;4.690;2022-09-20T20:28:12;3.43;;;1.00;;
22359;SDS011;11347;52.030;4.690;2022-09-20T20:30:37;1.20;;;0.60;;
22359;SDS011;11347;52.030;4.690;2022-09-20T20:33:03;4.97;;;0.97;;
22359;SDS011;11347;52.030;4.690;2022-09-20T20:35:30;3.73;;;0.70;;
22359;SDS011;11347;52.030;4.690;2022-09-20T20:37:55;2.20;;;1.03;;